sensor_id;sensor_type;location;lat;lon;timestamp;temperature;humidity
9977;DHT22;5029;47.378;11.776;2023-02-03T00:01:52;-0.40;99.90
9977;DHT22;5029;47.378;11.776;2023-02-03T00:06:57;-0.40;99.90
9977;DHT22;5029;47.378;11.776;2023-02-03T00:12:00;-0.50;99.90
9977;DHT22;5029;47.378;11.776;2023-02-03T00:17:04;-0.50;99.90
9977;DHT22;5029;47.378;11.776;2023-02-03T00:22:09;-0.50;99.90
9977;DHT22;5029;47.378;11.776;2023-02-03T00:27:12;-0.50;99.90
9977;DHT22;5029;47.378;11.776;2023-02-03T00:32:16;-0.50;99.90
9977;DHT22;5029;47.378;11.776;2023-02-03T00:37:21;-0.50;99.90
9977;DHT22;5029;47.378;11.776;2023-02-03T00:42:25;-0.50;99.90
9977;DHT22;5029;47.378;11.776;2023-02-03T00:47:28;-0.50;99.90
9977;DHT22;5029;47.378;11.776;2023-02-03T00:52:33;-0.50;99.90
9977;DHT22;5029;47.378;11.776;2023-02-03T00:57:36;-0.50;99.90
9977;DHT22;5029;47.378;11.776;2023-02-03T01:02:39;-0.50;99.90
9977;DHT22;5029;47.378;11.776;2023-02-03T01:07:44;-0.60;99.90
9977;DHT22;5029;47.378;11.776;2023-02-03T01:12:47;-0.60;99.90
9977;DHT22;5029;47.378;11.776;2023-02-03T01:17:51;-0.60;99.90
9977;DHT22;5029;47.378;11.776;2023-02-03T01:22:56;-0.60;99.90
9977;DHT22;5029;47.378;11.776;2023-02-03T01:27:59;-0.60;99.90
9977;DHT22;5029;47.378;11.776;2023-02-03T01:33:03;-0.60;99.90
9977;DHT22;5029;47.378;11.776;2023-02-03T01:38:08;-0.60;99.90
9977;DHT22;5029;47.378;11.776;2023-02-03T01:48:30;-0.60;99.90
9977;DHT22;5029;47.378;11.776;2023-02-03T01:53:36;-0.70;99.90
9977;DHT22;5029;47.378;11.776;2023-02-03T01:58:40;-0.70;99.90
9977;DHT22;5029;47.378;11.776;2023-02-03T02:03:47;-0.80;99.90
9977;DHT22;5029;47.378;11.776;2023-02-03T02:08:54;-0.70;99.90
9977;DHT22;5029;47.378;11.776;2023-02-03T02:14:02;-0.80;99.90
9977;DHT22;5029;47.378;11.776;2023-02-03T02:19:29;-0.90;99.90
9977;DHT22;5029;47.378;11.776;2023-02-03T02:25:05;-0.80;99.90
9977;DHT22;5029;47.378;11.776;2023-02-03T02:30:35;-0.60;99.90
9977;DHT22;5029;47.378;11.776;2023-02-03T02:35:52;-0.60;99.90
9977;DHT22;5029;47.378;11.776;2023-02-03T02:41:03;-0.60;99.90
9977;DHT22;5029;47.378;11.776;2023-02-03T02:46:10;-0.80;99.90
9977;DHT22;5029;47.378;11.776;2023-02-03T02:51:17;-0.80;99.90
9977;DHT22;5029;47.378;11.776;2023-02-03T02:56:21;-0.90;99.90
9977;DHT22;5029;47.378;11.776;2023-02-03T03:01:26;-0.90;99.90
9977;DHT22;5029;47.378;11.776;2023-02-03T03:06:32;-1.00;99.90
9977;DHT22;5029;47.378;11.776;2023-02-03T03:11:39;-0.90;99.90
9977;DHT22;5029;47.378;11.776;2023-02-03T03:16:47;-0.90;99.90
9977;DHT22;5029;47.378;11.776;2023-02-03T03:21:58;-0.90;99.90
9977;DHT22;5029;47.378;11.776;2023-02-03T03:27:07;-0.90;99.90
9977;DHT22;5029;47.378;11.776;2023-02-03T03:32:13;-0.90;99.90
9977;DHT22;5029;47.378;11.776;2023-02-03T03:37:21;-0.90;99.90
9977;DHT22;5029;47.378;11.776;2023-02-03T03:42:28;-1.00;99.90
9977;DHT22;5029;47.378;11.776;2023-02-03T03:47:37;-1.00;99.90
9977;DHT22;5029;47.378;11.776;2023-02-03T03:52:44;-1.10;99.90
9977;DHT22;5029;47.378;11.776;2023-02-03T03:57:53;-1.10;99.90
9977;DHT22;5029;47.378;11.776;2023-02-03T04:03:00;-1.00;99.90
9977;DHT22;5029;47.378;11.776;2023-02-03T04:08:06;-1.00;99.90
9977;DHT22;5029;47.378;11.776;2023-02-03T04:13:10;-1.00;99.90
9977;DHT22;5029;47.378;11.776;2023-02-03T04:18:14;-1.00;99.90
9977;DHT22;5029;47.378;11.776;2023-02-03T04:23:19;-1.00;99.90
9977;DHT22;5029;47.378;11.776;2023-02-03T04:28:22;-1.10;99.90
9977;DHT22;5029;47.378;11.776;2023-02-03T04:33:26;-1.10;99.90
9977;DHT22;5029;47.378;11.776;2023-02-03T04:38:30;-1.00;99.90
9977;DHT22;5029;47.378;11.776;2023-02-03T04:43:34;-1.00;99.90
9977;DHT22;5029;47.378;11.776;2023-02-03T04:48:37;-1.00;99.90
9977;DHT22;5029;47.378;11.776;2023-02-03T04:53:42;-1.00;99.90
9977;DHT22;5029;47.378;11.776;2023-02-03T04:58:45;-1.10;99.90
9977;DHT22;5029;47.378;11.776;2023-02-03T05:03:49;-1.10;99.90
9977;DHT22;5029;47.378;11.776;2023-02-03T05:08:54;-1.10;99.90
9977;DHT22;5029;47.378;11.776;2023-02-03T05:13:57;-1.00;99.90
9977;DHT22;5029;47.378;11.776;2023-02-03T05:19:01;-1.00;99.90
9977;DHT22;5029;47.378;11.776;2023-02-03T05:24:06;-1.10;99.90
9977;DHT22;5029;47.378;11.776;2023-02-03T05:29:09;-1.00;99.90
9977;DHT22;5029;47.378;11.776;2023-02-03T05:34:13;-1.00;99.90
9977;DHT22;5029;47.378;11.776;2023-02-03T05:39:37;-0.90;99.90
9977;DHT22;5029;47.378;11.776;2023-02-03T05:44:42;-1.00;99.90
9977;DHT22;5029;47.378;11.776;2023-02-03T05:49:45;-1.00;99.90
9977;DHT22;5029;47.378;11.776;2023-02-03T05:54:50;-1.10;99.90
9977;DHT22;5029;47.378;11.776;2023-02-03T05:59:53;-1.00;99.90
9977;DHT22;5029;47.378;11.776;2023-02-03T06:04:57;-1.00;99.90
9977;DHT22;5029;47.378;11.776;2023-02-03T06:10:01;-1.00;99.90
9977;DHT22;5029;47.378;11.776;2023-02-03T06:15:05;-1.00;99.90
9977;DHT22;5029;47.378;11.776;2023-02-03T06:20:11;-1.00;99.90
9977;DHT22;5029;47.378;11.776;2023-02-03T06:25:16;-1.00;99.90
9977;DHT22;5029;47.378;11.776;2023-02-03T06:30:19;-1.10;99.90
9977;DHT22;5029;47.378;11.776;2023-02-03T06:35:24;-1.00;99.90
9977;DHT22;5029;47.378;11.776;2023-02-03T06:40:29;-1.00;99.90
9977;DHT22;5029;47.378;11.776;2023-02-03T06:45:32;-1.10;99.90
9977;DHT22;5029;47.378;11.776;2023-02-03T06:50:36;-1.10;99.90
9977;DHT22;5029;47.378;11.776;2023-02-03T06:55:41;-1.20;99.90
9977;DHT22;5029;47.378;11.776;2023-02-03T07:00:44;-1.20;99.90
9977;DHT22;5029;47.378;11.776;2023-02-03T07:05:47;-1.20;99.90
9977;DHT22;5029;47.378;11.776;2023-02-03T07:10:54;-1.30;99.90
9977;DHT22;5029;47.378;11.776;2023-02-03T07:15:57;-1.20;99.90
9977;DHT22;5029;47.378;11.776;2023-02-03T07:21:03;-1.10;99.90
9977;DHT22;5029;47.378;11.776;2023-02-03T07:26:09;-1.20;99.90
9977;DHT22;5029;47.378;11.776;2023-02-03T07:31:13;-1.10;99.90
9977;DHT22;5029;47.378;11.776;2023-02-03T07:36:16;-1.00;99.90
9977;DHT22;5029;47.378;11.776;2023-02-03T07:41:21;-1.20;99.90
9977;DHT22;5029;47.378;11.776;2023-02-03T07:46:25;-1.00;99.90
9977;DHT22;5029;47.378;11.776;2023-02-03T07:51:28;-1.10;99.90
9977;DHT22;5029;47.378;11.776;2023-02-03T07:56:33;-1.10;99.90
9977;DHT22;5029;47.378;11.776;2023-02-03T08:01:36;-0.90;99.90
9977;DHT22;5029;47.378;11.776;2023-02-03T08:06:40;-0.90;99.90
9977;DHT22;5029;47.378;11.776;2023-02-03T08:11:44;-0.70;99.90
9977;DHT22;5029;47.378;11.776;2023-02-03T08:16:49;-0.90;99.90
9977;DHT22;5029;47.378;11.776;2023-02-03T08:21:52;-1.10;99.90
9977;DHT22;5029;47.378;11.776;2023-02-03T08:26:57;-1.00;99.90
9977;DHT22;5029;47.378;11.776;2023-02-03T08:32:03;-0.90;99.90
9977;DHT22;5029;47.378;11.776;2023-02-03T08:37:07;-0.80;99.90
9977;DHT22;5029;47.378;11.776;2023-02-03T08:42:12;-1.00;99.90
9977;DHT22;5029;47.378;11.776;2023-02-03T08:47:16;-0.80;99.90
9977;DHT22;5029;47.378;11.776;2023-02-03T08:52:20;-1.00;99.90
9977;DHT22;5029;47.378;11.776;2023-02-03T08:57:25;-0.80;99.90
9977;DHT22;5029;47.378;11.776;2023-02-03T09:02:30;-0.60;99.90
9977;DHT22;5029;47.378;11.776;2023-02-03T09:07:34;-0.60;99.90
9977;DHT22;5029;47.378;11.776;2023-02-03T09:12:39;-0.40;99.90
9977;DHT22;5029;47.378;11.776;2023-02-03T09:17:42;-0.30;99.90
9977;DHT22;5029;47.378;11.776;2023-02-03T09:22:45;-0.20;99.90
9977;DHT22;5029;47.378;11.776;2023-02-03T09:27:50;-0.10;99.90
9977;DHT22;5029;47.378;11.776;2023-02-03T09:32:54;0.10;99.90
9977;DHT22;5029;47.378;11.776;2023-02-03T09:37:58;0.10;99.90
9977;DHT22;5029;47.378;11.776;2023-02-03T09:43:12;0.30;99.90
9977;DHT22;5029;47.378;11.776;2023-02-03T09:48:19;0.20;99.90
9977;DHT22;5029;47.378;11.776;2023-02-03T09:53:26;0.10;99.90
9977;DHT22;5029;47.378;11.776;2023-02-03T09:58:33;0.30;99.90
9977;DHT22;5029;47.378;11.776;2023-02-03T10:03:40;0.40;99.90
9977;DHT22;5029;47.378;11.776;2023-02-03T10:09:13;0.70;99.90
9977;DHT22;5029;47.378;11.776;2023-02-03T10:14:38;1.00;99.90
9977;DHT22;5029;47.378;11.776;2023-02-03T10:19:49;1.20;99.90
9977;DHT22;5029;47.378;11.776;2023-02-03T10:25:03;1.10;99.90
9977;DHT22;5029;47.378;11.776;2023-02-03T10:30:18;1.40;99.90
9977;DHT22;5029;47.378;11.776;2023-02-03T10:35:28;1.50;99.90
9977;DHT22;5029;47.378;11.776;2023-02-03T10:40:36;1.60;99.90
9977;DHT22;5029;47.378;11.776;2023-02-03T10:45:41;1.80;99.90
9977;DHT22;5029;47.378;11.776;2023-02-03T10:50:47;1.80;99.90
9977;DHT22;5029;47.378;11.776;2023-02-03T10:56:01;2.00;99.90
9977;DHT22;5029;47.378;11.776;2023-02-03T11:01:09;2.20;99.90
9977;DHT22;5029;47.378;11.776;2023-02-03T11:06:14;2.20;99.90
9977;DHT22;5029;47.378;11.776;2023-02-03T11:11:23;2.40;99.90
9977;DHT22;5029;47.378;11.776;2023-02-03T11:16:31;2.50;99.90
9977;DHT22;5029;47.378;11.776;2023-02-03T11:21:42;2.70;99.90
9977;DHT22;5029;47.378;11.776;2023-02-03T11:26:50;2.50;99.90
9977;DHT22;5029;47.378;11.776;2023-02-03T11:31:58;2.60;99.90
9977;DHT22;5029;47.378;11.776;2023-02-03T11:37:25;2.70;99.90
9977;DHT22;5029;47.378;11.776;2023-02-03T11:42:29;2.80;99.90
9977;DHT22;5029;47.378;11.776;2023-02-03T11:47:34;2.80;99.90
9977;DHT22;5029;47.378;11.776;2023-02-03T11:53:06;2.80;99.90
9977;DHT22;5029;47.378;11.776;2023-02-03T11:58:34;2.40;99.90
9977;DHT22;5029;47.378;11.776;2023-02-03T12:04:04;2.30;99.90
9977;DHT22;5029;47.378;11.776;2023-02-03T12:09:27;2.40;99.90
9977;DHT22;5029;47.378;11.776;2023-02-03T12:14:45;2.50;99.90
9977;DHT22;5029;47.378;11.776;2023-02-03T12:20:05;2.60;99.90
9977;DHT22;5029;47.378;11.776;2023-02-03T12:25:32;2.40;99.90
9977;DHT22;5029;47.378;11.776;2023-02-03T12:30:42;2.40;99.90
9977;DHT22;5029;47.378;11.776;2023-02-03T12:35:51;2.10;99.90
9977;DHT22;5029;47.378;11.776;2023-02-03T12:40:59;2.40;99.90
9977;DHT22;5029;47.378;11.776;2023-02-03T12:46:09;2.20;99.90
9977;DHT22;5029;47.378;11.776;2023-02-03T12:51:23;2.30;99.90
9977;DHT22;5029;47.378;11.776;2023-02-03T12:56:37;2.40;99.90
9977;DHT22;5029;47.378;11.776;2023-02-03T13:01:45;2.30;99.90
9977;DHT22;5029;47.378;11.776;2023-02-03T13:06:59;2.60;99.90
9977;DHT22;5029;47.378;11.776;2023-02-03T13:12:09;2.70;99.90
9977;DHT22;5029;47.378;11.776;2023-02-03T13:17:18;2.80;99.90
9977;DHT22;5029;47.378;11.776;2023-02-03T13:22:24;2.80;99.90
9977;DHT22;5029;47.378;11.776;2023-02-03T13:27:38;2.90;99.90
9977;DHT22;5029;47.378;11.776;2023-02-03T13:33:10;2.80;99.90
9977;DHT22;5029;47.378;11.776;2023-02-03T13:38:36;2.60;99.90
9977;DHT22;5029;47.378;11.776;2023-02-03T13:43:45;2.40;99.90
9977;DHT22;5029;47.378;11.776;2023-02-03T13:48:51;2.50;99.90
9977;DHT22;5029;47.378;11.776;2023-02-03T13:54:01;2.70;99.90
9977;DHT22;5029;47.378;11.776;2023-02-03T13:59:26;2.70;99.90
9977;DHT22;5029;47.378;11.776;2023-02-03T14:04:52;2.60;99.90
9977;DHT22;5029;47.378;11.776;2023-02-03T14:10:15;2.70;99.90
9977;DHT22;5029;47.378;11.776;2023-02-03T14:15:33;2.70;99.90
9977;DHT22;5029;47.378;11.776;2023-02-03T14:26:40;2.50;99.90
9977;DHT22;5029;47.378;11.776;2023-02-03T14:31:53;2.60;99.90
9977;DHT22;5029;47.378;11.776;2023-02-03T14:37:11;2.50;99.90
9977;DHT22;5029;47.378;11.776;2023-02-03T14:42:38;2.40;99.90
9977;DHT22;5029;47.378;11.776;2023-02-03T14:47:55;2.20;99.90
9977;DHT22;5029;47.378;11.776;2023-02-03T14:53:34;2.00;99.90
9977;DHT22;5029;47.378;11.776;2023-02-03T14:58:47;1.80;99.90
9977;DHT22;5029;47.378;11.776;2023-02-03T15:04:20;1.80;99.90
9977;DHT22;5029;47.378;11.776;2023-02-03T15:09:30;1.80;99.90
9977;DHT22;5029;47.378;11.776;2023-02-03T15:14:38;1.70;99.90
9977;DHT22;5029;47.378;11.776;2023-02-03T15:19:42;1.70;99.90
9977;DHT22;5029;47.378;11.776;2023-02-03T15:24:45;1.60;99.90
9977;DHT22;5029;47.378;11.776;2023-02-03T15:29:50;1.60;99.90
9977;DHT22;5029;47.378;11.776;2023-02-03T15:34:54;1.70;99.90
9977;DHT22;5029;47.378;11.776;2023-02-03T15:40:01;1.60;99.90
9977;DHT22;5029;47.378;11.776;2023-02-03T15:45:21;1.60;99.90
9977;DHT22;5029;47.378;11.776;2023-02-03T15:50:28;1.60;99.90
9977;DHT22;5029;47.378;11.776;2023-02-03T15:55:40;1.90;99.90
9977;DHT22;5029;47.378;11.776;2023-02-03T16:00:48;1.50;99.90
9977;DHT22;5029;47.378;11.776;2023-02-03T16:05:53;1.50;99.90
9977;DHT22;5029;47.378;11.776;2023-02-03T16:10:56;1.40;99.90
9977;DHT22;5029;47.378;11.776;2023-02-03T16:16:04;1.40;99.90
9977;DHT22;5029;47.378;11.776;2023-02-03T16:21:27;1.40;99.90
9977;DHT22;5029;47.378;11.776;2023-02-03T16:26:32;1.10;99.90
9977;DHT22;5029;47.378;11.776;2023-02-03T16:31:42;1.50;99.90
9977;DHT22;5029;47.378;11.776;2023-02-03T16:37:12;1.50;99.90
9977;DHT22;5029;47.378;11.776;2023-02-03T16:42:37;1.40;99.90
9977;DHT22;5029;47.378;11.776;2023-02-03T16:48:01;1.30;99.90
9977;DHT22;5029;47.378;11.776;2023-02-03T16:53:23;1.30;99.90
9977;DHT22;5029;47.378;11.776;2023-02-03T16:58:28;1.40;99.90
9977;DHT22;5029;47.378;11.776;2023-02-03T17:03:35;1.30;99.90
9977;DHT22;5029;47.378;11.776;2023-02-03T17:08:39;1.40;99.90
9977;DHT22;5029;47.378;11.776;2023-02-03T17:13:44;1.40;99.90
9977;DHT22;5029;47.378;11.776;2023-02-03T17:18:50;1.20;99.90
9977;DHT22;5029;47.378;11.776;2023-02-03T17:23:57;1.20;99.90
9977;DHT22;5029;47.378;11.776;2023-02-03T17:29:00;1.30;99.90
9977;DHT22;5029;47.378;11.776;2023-02-03T17:34:06;1.40;99.90
9977;DHT22;5029;47.378;11.776;2023-02-03T17:39:09;1.40;99.90
9977;DHT22;5029;47.378;11.776;2023-02-03T17:44:32;1.40;99.90
9977;DHT22;5029;47.378;11.776;2023-02-03T17:49:56;1.40;99.90
9977;DHT22;5029;47.378;11.776;2023-02-03T17:55:18;1.40;99.90
9977;DHT22;5029;47.378;11.776;2023-02-03T18:00:22;1.40;99.90
9977;DHT22;5029;47.378;11.776;2023-02-03T18:05:28;1.50;99.90
9977;DHT22;5029;47.378;11.776;2023-02-03T18:10:33;1.30;99.90
9977;DHT22;5029;47.378;11.776;2023-02-03T18:15:37;1.30;99.90
9977;DHT22;5029;47.378;11.776;2023-02-03T18:20:44;1.30;99.90
9977;DHT22;5029;47.378;11.776;2023-02-03T18:25:52;1.10;99.90
9977;DHT22;5029;47.378;11.776;2023-02-03T18:31:01;1.10;99.90
9977;DHT22;5029;47.378;11.776;2023-02-03T18:36:09;1.10;99.90
9977;DHT22;5029;47.378;11.776;2023-02-03T18:41:16;1.00;99.90
9977;DHT22;5029;47.378;11.776;2023-02-03T18:46:22;1.10;99.90
9977;DHT22;5029;47.378;11.776;2023-02-03T18:51:28;1.30;99.90
9977;DHT22;5029;47.378;11.776;2023-02-03T18:56:33;1.10;99.90
9977;DHT22;5029;47.378;11.776;2023-02-03T19:01:42;1.20;99.90
9977;DHT22;5029;47.378;11.776;2023-02-03T19:06:51;1.10;99.90
9977;DHT22;5029;47.378;11.776;2023-02-03T19:11:56;1.10;99.90
9977;DHT22;5029;47.378;11.776;2023-02-03T19:17:02;1.10;99.90
9977;DHT22;5029;47.378;11.776;2023-02-03T19:22:09;1.30;99.90
9977;DHT22;5029;47.378;11.776;2023-02-03T19:27:15;1.30;99.90
9977;DHT22;5029;47.378;11.776;2023-02-03T19:32:20;1.40;99.90
9977;DHT22;5029;47.378;11.776;2023-02-03T19:37:27;1.50;99.90
9977;DHT22;5029;47.378;11.776;2023-02-03T19:42:31;1.60;99.90
9977;DHT22;5029;47.378;11.776;2023-02-03T19:47:38;1.50;99.90
9977;DHT22;5029;47.378;11.776;2023-02-03T19:52:44;1.60;99.90
9977;DHT22;5029;47.378;11.776;2023-02-03T19:57:50;1.60;99.90
9977;DHT22;5029;47.378;11.776;2023-02-03T20:02:54;1.50;99.90
9977;DHT22;5029;47.378;11.776;2023-02-03T20:08:01;1.50;99.90
9977;DHT22;5029;47.378;11.776;2023-02-03T20:13:07;1.60;99.90
9977;DHT22;5029;47.378;11.776;2023-02-03T20:18:12;1.50;99.90
9977;DHT22;5029;47.378;11.776;2023-02-03T20:23:27;1.60;99.90
9977;DHT22;5029;47.378;11.776;2023-02-03T20:28:32;1.60;99.90
9977;DHT22;5029;47.378;11.776;2023-02-03T20:33:42;1.60;99.90
9977;DHT22;5029;47.378;11.776;2023-02-03T20:38:49;1.60;99.90
9977;DHT22;5029;47.378;11.776;2023-02-03T20:43:55;1.50;99.90
9977;DHT22;5029;47.378;11.776;2023-02-03T20:49:00;1.50;99.90
9977;DHT22;5029;47.378;11.776;2023-02-03T20:54:13;1.50;99.90
9977;DHT22;5029;47.378;11.776;2023-02-03T20:59:19;1.50;99.90
9977;DHT22;5029;47.378;11.776;2023-02-03T21:04:25;1.50;99.90
9977;DHT22;5029;47.378;11.776;2023-02-03T21:09:49;1.50;99.90
9977;DHT22;5029;47.378;11.776;2023-02-03T21:14:57;1.50;99.90
9977;DHT22;5029;47.378;11.776;2023-02-03T21:20:05;1.50;99.90
9977;DHT22;5029;47.378;11.776;2023-02-03T21:25:28;1.50;99.90
9977;DHT22;5029;47.378;11.776;2023-02-03T21:30:35;1.60;99.90
9977;DHT22;5029;47.378;11.776;2023-02-03T21:35:40;1.50;99.90
9977;DHT22;5029;47.378;11.776;2023-02-03T21:40:46;1.50;99.90
9977;DHT22;5029;47.378;11.776;2023-02-03T21:45:50;1.50;99.90
9977;DHT22;5029;47.378;11.776;2023-02-03T21:50:59;1.50;99.90
9977;DHT22;5029;47.378;11.776;2023-02-03T21:56:20;1.60;99.90
9977;DHT22;5029;47.378;11.776;2023-02-03T22:01:25;1.60;99.90
9977;DHT22;5029;47.378;11.776;2023-02-03T22:06:40;1.60;99.90
9977;DHT22;5029;47.378;11.776;2023-02-03T22:11:47;1.50;99.90
9977;DHT22;5029;47.378;11.776;2023-02-03T22:16:50;1.60;99.90
9977;DHT22;5029;47.378;11.776;2023-02-03T22:21:54;1.50;99.90
9977;DHT22;5029;47.378;11.776;2023-02-03T22:26:59;1.60;99.90
9977;DHT22;5029;47.378;11.776;2023-02-03T22:32:03;1.60;99.90
9977;DHT22;5029;47.378;11.776;2023-02-03T22:37:06;1.60;99.90
9977;DHT22;5029;47.378;11.776;2023-02-03T22:42:11;1.60;99.90
9977;DHT22;5029;47.378;11.776;2023-02-03T22:47:15;1.50;99.90
9977;DHT22;5029;47.378;11.776;2023-02-03T22:52:19;1.60;99.90
9977;DHT22;5029;47.378;11.776;2023-02-03T22:57:23;1.60;99.90
9977;DHT22;5029;47.378;11.776;2023-02-03T23:02:27;1.50;99.90
9977;DHT22;5029;47.378;11.776;2023-02-03T23:07:30;1.50;99.90
9977;DHT22;5029;47.378;11.776;2023-02-03T23:12:35;1.60;99.90
9977;DHT22;5029;47.378;11.776;2023-02-03T23:17:39;1.50;99.90
9977;DHT22;5029;47.378;11.776;2023-02-03T23:22:42;1.50;99.90
9977;DHT22;5029;47.378;11.776;2023-02-03T23:27:48;1.50;99.90
9977;DHT22;5029;47.378;11.776;2023-02-03T23:32:51;1.60;99.90
9977;DHT22;5029;47.378;11.776;2023-02-03T23:38:16;1.50;99.90
9977;DHT22;5029;47.378;11.776;2023-02-03T23:43:21;1.50;99.90
9977;DHT22;5029;47.378;11.776;2023-02-03T23:48:24;1.50;99.90
9977;DHT22;5029;47.378;11.776;2023-02-03T23:53:27;1.50;99.90
9977;DHT22;5029;47.378;11.776;2023-02-03T23:58:32;1.50;99.90
